PWSweather.com
Personal Weather Stations
Station Observations
IMAZOWIE6
WarszawaPL

WarszawaPL

Lat: 52.27957, Lon: 21.05489

Elevation: 100

Station Type: WS1080

http://stacjapogody.waw.pl/

High Low Average
Temperature 40.3°F4.6°C 22.3°F-5.4°C 28.7°F-1.8°C
Dew Point -168.8°F-111.6°C -170.6°F-112.6°C -169.9°F-112.2°C
Winds Calm Calm Calm Calm Calm NCalm N
Wind Gusts 0.6 mph1.0 kmh -- --
Humidity - - -
Pressure 30.22 in1023.4 mb 30.12 in1020.0 mb -
Precipitation 0.00 in0.0 mm - -
Hour Temp Dew Point Humidity Winds Wind Gusts Pressure Precip Precip Rate Daily Precip Total
12:04 AM 28.2°F-2.1°C -170.0°F-112.2°C - Calm Calm -- 30.13 in1020.3 mb 0.00 in0.0 mm 0.00 in0.0 mm 0.00 in0.0 mm
12:19 AM 28.0°F-2.2°C -170.0°F-112.2°C - Calm Calm -- 30.13 in1020.3 mb 0.00 in0.0 mm 0.00 in0.0 mm 0.00 in0.0 mm
12:34 AM 28.0°F-2.2°C -170.0°F-112.2°C - Calm Calm -- 30.13 in1020.3 mb 0.00 in0.0 mm 0.00 in0.0 mm 0.00 in0.0 mm
12:49 AM 27.9°F-2.3°C -170.0°F-112.2°C - Calm Calm -- 30.13 in1020.3 mb 0.00 in0.0 mm 0.00 in0.0 mm 0.00 in0.0 mm
01:04 AM 27.3°F-2.6°C -170.1°F-112.3°C - Calm Calm -- 30.12 in1020.0 mb 0.00 in0.0 mm 0.00 in0.0 mm 0.00 in0.0 mm
01:19 AM 26.6°F-3.0°C -170.1°F-112.3°C - Calm Calm -- 30.12 in1020.0 mb 0.00 in0.0 mm 0.00 in0.0 mm 0.00 in0.0 mm
01:34 AM 26.4°F-3.1°C -170.2°F-112.3°C - Calm Calm -- 30.12 in1020.0 mb 0.00 in0.0 mm 0.00 in0.0 mm 0.00 in0.0 mm
01:49 AM 26.2°F-3.2°C -170.2°F-112.3°C - Calm Calm -- 30.13 in1020.3 mb 0.00 in0.0 mm 0.00 in0.0 mm 0.00 in0.0 mm
02:04 AM 26.4°F-3.1°C -170.2°F-112.3°C - Calm Calm -- 30.14 in1020.7 mb 0.00 in0.0 mm 0.00 in0.0 mm 0.00 in0.0 mm
02:19 AM 26.4°F-3.1°C -170.2°F-112.3°C - Calm Calm -- 30.13 in1020.3 mb 0.00 in0.0 mm 0.00 in0.0 mm 0.00 in0.0 mm
02:30 AM 26.4°F-3.1°C -170.2°F-112.3°C - Calm Calm -- 30.13 in1020.3 mb 0.00 in0.0 mm 0.00 in0.0 mm 0.00 in0.0 mm
02:49 AM 25.2°F-3.8°C -170.3°F-112.4°C - Calm Calm -- 30.13 in1020.3 mb 0.00 in0.0 mm 0.00 in0.0 mm 0.00 in0.0 mm
03:04 AM 25.2°F-3.8°C -170.3°F-112.4°C - Calm Calm -- 30.12 in1020.0 mb 0.00 in0.0 mm 0.00 in0.0 mm 0.00 in0.0 mm
03:19 AM 25.0°F-3.9°C -170.3°F-112.4°C - Calm Calm -- 30.13 in1020.3 mb 0.00 in0.0 mm 0.00 in0.0 mm 0.00 in0.0 mm
03:34 AM 24.8°F-4.0°C -170.3°F-112.4°C - Calm Calm -- 30.13 in1020.3 mb 0.00 in0.0 mm 0.00 in0.0 mm 0.00 in0.0 mm
03:50 AM 24.8°F-4.0°C -170.3°F-112.4°C - Calm Calm -- 30.14 in1020.7 mb 0.00 in0.0 mm 0.00 in0.0 mm 0.00 in0.0 mm
04:05 AM 24.4°F-4.2°C -170.4°F-112.4°C - Calm Calm -- 30.14 in1020.7 mb 0.00 in0.0 mm 0.00 in0.0 mm 0.00 in0.0 mm
04:19 AM 24.4°F-4.2°C -170.4°F-112.4°C - Calm Calm -- 30.13 in1020.3 mb 0.00 in0.0 mm 0.00 in0.0 mm 0.00 in0.0 mm
04:40 AM 24.4°F-4.2°C -170.4°F-112.4°C - Calm Calm -- 30.13 in1020.3 mb 0.00 in0.0 mm 0.00 in0.0 mm 0.00 in0.0 mm
04:49 AM 24.4°F-4.2°C -170.4°F-112.4°C - Calm Calm -- 30.13 in1020.3 mb 0.00 in0.0 mm 0.00 in0.0 mm 0.00 in0.0 mm
05:07 AM 24.1°F-4.4°C -170.4°F-112.4°C - Calm Calm -- 30.14 in1020.7 mb 0.00 in0.0 mm 0.00 in0.0 mm 0.00 in0.0 mm
05:23 AM 23.9°F-4.5°C -170.4°F-112.4°C - Calm Calm -- 30.14 in1020.7 mb 0.00 in0.0 mm 0.00 in0.0 mm 0.00 in0.0 mm
05:36 AM 23.5°F-4.7°C -170.4°F-112.4°C - Calm Calm -- 30.13 in1020.3 mb 0.00 in0.0 mm 0.00 in0.0 mm 0.00 in0.0 mm
05:52 AM 23.4°F-4.8°C -170.5°F-112.5°C - Calm Calm -- 30.13 in1020.3 mb 0.00 in0.0 mm 0.00 in0.0 mm 0.00 in0.0 mm
06:09 AM 23.2°F-4.9°C -170.5°F-112.5°C - Calm Calm -- 30.14 in1020.7 mb 0.00 in0.0 mm 0.00 in0.0 mm 0.00 in0.0 mm
06:19 AM 23.2°F-4.9°C -170.5°F-112.5°C - Calm Calm -- 30.14 in1020.7 mb 0.00 in0.0 mm 0.00 in0.0 mm 0.00 in0.0 mm
06:35 AM 22.6°F-5.2°C -170.5°F-112.5°C - Calm Calm -- 30.14 in1020.7 mb 0.00 in0.0 mm 0.00 in0.0 mm 0.00 in0.0 mm
06:56 AM 22.3°F-5.4°C -170.6°F-112.6°C - Calm Calm -- 30.14 in1020.7 mb 0.00 in0.0 mm 0.00 in0.0 mm 0.00 in0.0 mm
07:06 AM 22.5°F-5.3°C -170.6°F-112.6°C - Calm Calm -- 30.14 in1020.7 mb 0.00 in0.0 mm 0.00 in0.0 mm 0.00 in0.0 mm
07:24 AM 22.6°F-5.2°C -170.5°F-112.5°C - Calm Calm -- 30.14 in1020.7 mb 0.00 in0.0 mm 0.00 in0.0 mm 0.00 in0.0 mm
07:36 AM 22.8°F-5.1°C -170.5°F-112.5°C - Calm Calm -- 30.15 in1021.0 mb 0.00 in0.0 mm 0.00 in0.0 mm 0.00 in0.0 mm
07:49 AM 23.0°F-5.0°C -170.5°F-112.5°C - Calm Calm -- 30.14 in1020.7 mb 0.00 in0.0 mm 0.00 in0.0 mm 0.00 in0.0 mm
08:10 AM 23.2°F-4.9°C -170.5°F-112.5°C - Calm Calm -- 30.15 in1021.0 mb 0.00 in0.0 mm 0.00 in0.0 mm 0.00 in0.0 mm
08:24 AM 25.7°F-3.5°C -170.2°F-112.3°C - Calm Calm -- 30.15 in1021.0 mb 0.00 in0.0 mm 0.00 in0.0 mm 0.00 in0.0 mm
08:38 AM 29.7°F-1.3°C -169.8°F-112.1°C - Calm Calm -- 30.16 in1021.3 mb 0.00 in0.0 mm 0.00 in0.0 mm 0.00 in0.0 mm
08:53 AM 31.8°F-0.1°C -169.6°F-112.0°C - Calm Calm -- 30.16 in1021.3 mb 0.00 in0.0 mm 0.00 in0.0 mm 0.00 in0.0 mm
09:08 AM 34.2°F1.2°C -169.4°F-111.9°C - Calm Calm -- 30.17 in1021.7 mb 0.00 in0.0 mm 0.00 in0.0 mm 0.00 in0.0 mm
09:19 AM 36.1°F2.3°C -169.2°F-111.8°C - Calm Calm -- 30.17 in1021.7 mb 0.00 in0.0 mm 0.00 in0.0 mm 0.00 in0.0 mm
09:36 AM 37.8°F3.2°C -169.0°F-111.7°C - Calm Calm -- 30.16 in1021.3 mb 0.00 in0.0 mm 0.00 in0.0 mm 0.00 in0.0 mm
09:53 AM 39.0°F3.9°C -168.9°F-111.6°C - Calm Calm 0.6 mph1.0 kmh 30.17 in1021.7 mb 0.00 in0.0 mm 0.00 in0.0 mm 0.00 in0.0 mm
10:07 AM 40.3°F4.6°C -168.8°F-111.6°C - Calm Calm -- 30.16 in1021.3 mb 0.00 in0.0 mm 0.00 in0.0 mm 0.00 in0.0 mm
10:19 AM 36.5°F2.5°C -169.2°F-111.8°C - Calm Calm 0.6 mph1.0 kmh 30.17 in1021.7 mb 0.00 in0.0 mm 0.00 in0.0 mm 0.00 in0.0 mm
10:35 AM 33.4°F0.8°C -169.5°F-111.9°C - Calm Calm -- 30.18 in1022.0 mb 0.00 in0.0 mm 0.00 in0.0 mm 0.00 in0.0 mm
10:49 AM 32.5°F0.3°C -169.5°F-111.9°C - Calm Calm -- 30.18 in1022.0 mb 0.00 in0.0 mm 0.00 in0.0 mm 0.00 in0.0 mm
11:04 AM 32.5°F0.3°C -169.5°F-111.9°C - Calm Calm -- 30.18 in1022.0 mb 0.00 in0.0 mm 0.00 in0.0 mm 0.00 in0.0 mm
11:19 AM 32.4°F0.2°C -169.6°F-112.0°C - Calm Calm -- 30.17 in1021.7 mb 0.00 in0.0 mm 0.00 in0.0 mm 0.00 in0.0 mm
11:34 AM 32.5°F0.3°C -169.5°F-111.9°C - Calm Calm -- 30.16 in1021.3 mb 0.00 in0.0 mm 0.00 in0.0 mm 0.00 in0.0 mm
11:50 AM 32.5°F0.3°C -169.5°F-111.9°C - Calm Calm 0.6 mph1.0 kmh 30.16 in1021.3 mb 0.00 in0.0 mm 0.00 in0.0 mm 0.00 in0.0 mm
12:04 PM 32.7°F0.4°C -169.5°F-111.9°C - Calm Calm -- 30.16 in1021.3 mb 0.00 in0.0 mm 0.00 in0.0 mm 0.00 in0.0 mm
12:19 PM 32.7°F0.4°C -169.5°F-111.9°C - Calm Calm 0.6 mph1.0 kmh 30.16 in1021.3 mb 0.00 in0.0 mm 0.00 in0.0 mm 0.00 in0.0 mm
12:35 PM 32.5°F0.3°C -169.5°F-111.9°C - Calm Calm 0.6 mph1.0 kmh 30.16 in1021.3 mb 0.00 in0.0 mm 0.00 in0.0 mm 0.00 in0.0 mm
12:49 PM 32.9°F0.5°C -169.5°F-111.9°C - Calm Calm -- 30.16 in1021.3 mb 0.00 in0.0 mm 0.00 in0.0 mm 0.00 in0.0 mm
01:04 PM 32.7°F0.4°C -169.5°F-111.9°C - Calm Calm -- 30.16 in1021.3 mb 0.00 in0.0 mm 0.00 in0.0 mm 0.00 in0.0 mm
01:19 PM 33.1°F0.6°C -169.5°F-111.9°C - Calm Calm -- 30.15 in1021.0 mb 0.00 in0.0 mm 0.00 in0.0 mm 0.00 in0.0 mm
01:34 PM 33.1°F0.6°C -169.5°F-111.9°C - Calm Calm -- 30.15 in1021.0 mb 0.00 in0.0 mm 0.00 in0.0 mm 0.00 in0.0 mm
01:49 PM 33.1°F0.6°C -169.5°F-111.9°C - Calm Calm -- 30.15 in1021.0 mb 0.00 in0.0 mm 0.00 in0.0 mm 0.00 in0.0 mm
02:05 PM 33.3°F0.7°C -169.5°F-111.9°C - Calm Calm -- 30.15 in1021.0 mb 0.00 in0.0 mm 0.00 in0.0 mm 0.00 in0.0 mm
02:19 PM 33.4°F0.8°C -169.5°F-111.9°C - Calm Calm -- 30.16 in1021.3 mb 0.00 in0.0 mm 0.00 in0.0 mm 0.00 in0.0 mm
02:34 PM 33.6°F0.9°C -169.4°F-111.9°C - Calm Calm -- 30.17 in1021.7 mb 0.00 in0.0 mm 0.00 in0.0 mm 0.00 in0.0 mm
02:50 PM 33.6°F0.9°C -169.4°F-111.9°C - Calm Calm -- 30.17 in1021.7 mb 0.00 in0.0 mm 0.00 in0.0 mm 0.00 in0.0 mm
03:05 PM 33.3°F0.7°C -169.5°F-111.9°C - Calm Calm -- 30.17 in1021.7 mb 0.00 in0.0 mm 0.00 in0.0 mm 0.00 in0.0 mm
03:21 PM 32.5°F0.3°C -169.5°F-111.9°C - Calm Calm -- 30.17 in1021.7 mb 0.00 in0.0 mm 0.00 in0.0 mm 0.00 in0.0 mm
03:36 PM 32.4°F0.2°C -169.6°F-112.0°C - Calm Calm -- 30.17 in1021.7 mb 0.00 in0.0 mm 0.00 in0.0 mm 0.00 in0.0 mm
03:49 PM 31.5°F-0.3°C -169.7°F-112.1°C - Calm Calm -- 30.17 in1021.7 mb 0.00 in0.0 mm 0.00 in0.0 mm 0.00 in0.0 mm
04:06 PM 31.5°F-0.3°C -169.7°F-112.1°C - Calm Calm -- 30.17 in1021.7 mb 0.00 in0.0 mm 0.00 in0.0 mm 0.00 in0.0 mm
04:18 PM 31.5°F-0.3°C -169.7°F-112.1°C - Calm Calm -- 30.17 in1021.7 mb 0.00 in0.0 mm 0.00 in0.0 mm 0.00 in0.0 mm
04:36 PM 30.9°F-0.6°C -169.7°F-112.1°C - Calm Calm -- 30.18 in1022.0 mb 0.00 in0.0 mm 0.00 in0.0 mm 0.00 in0.0 mm
04:49 PM 30.6°F-0.8°C -169.7°F-112.1°C - Calm Calm -- 30.19 in1022.4 mb 0.00 in0.0 mm 0.00 in0.0 mm 0.00 in0.0 mm
05:06 PM 30.0°F-1.1°C -169.8°F-112.1°C - Calm Calm -- 30.18 in1022.0 mb 0.00 in0.0 mm 0.00 in0.0 mm 0.00 in0.0 mm
05:19 PM 29.8°F-1.2°C -169.8°F-112.1°C - Calm Calm -- 30.19 in1022.4 mb 0.00 in0.0 mm 0.00 in0.0 mm 0.00 in0.0 mm
05:34 PM 29.7°F-1.3°C -169.8°F-112.1°C - Calm Calm -- 30.19 in1022.4 mb 0.00 in0.0 mm 0.00 in0.0 mm 0.00 in0.0 mm
05:49 PM 29.5°F-1.4°C -169.9°F-112.2°C - Calm Calm -- 30.18 in1022.0 mb 0.00 in0.0 mm 0.00 in0.0 mm 0.00 in0.0 mm
06:04 PM 29.1°F-1.6°C -169.9°F-112.2°C - Calm Calm -- 30.19 in1022.4 mb 0.00 in0.0 mm 0.00 in0.0 mm 0.00 in0.0 mm
06:19 PM 29.1°F-1.6°C -169.9°F-112.2°C - Calm Calm -- 30.18 in1022.0 mb 0.00 in0.0 mm 0.00 in0.0 mm 0.00 in0.0 mm
06:31 PM 29.1°F-1.6°C -169.9°F-112.2°C - Calm Calm -- 30.18 in1022.0 mb 0.00 in0.0 mm 0.00 in0.0 mm 0.00 in0.0 mm
06:49 PM 28.6°F-1.9°C -169.9°F-112.2°C - Calm Calm -- 30.19 in1022.4 mb 0.00 in0.0 mm 0.00 in0.0 mm 0.00 in0.0 mm
07:04 PM 28.8°F-1.8°C -169.9°F-112.2°C - Calm Calm -- 30.19 in1022.4 mb 0.00 in0.0 mm 0.00 in0.0 mm 0.00 in0.0 mm
07:19 PM 28.6°F-1.9°C -169.9°F-112.2°C - Calm Calm -- 30.19 in1022.4 mb 0.00 in0.0 mm 0.00 in0.0 mm 0.00 in0.0 mm
07:34 PM 28.8°F-1.8°C -169.9°F-112.2°C - Calm Calm -- 30.19 in1022.4 mb 0.00 in0.0 mm 0.00 in0.0 mm 0.00 in0.0 mm
07:49 PM 29.3°F-1.5°C -169.9°F-112.2°C - Calm Calm -- 30.19 in1022.4 mb 0.00 in0.0 mm 0.00 in0.0 mm 0.00 in0.0 mm
08:04 PM 28.6°F-1.9°C -169.9°F-112.2°C - Calm Calm -- 30.20 in1022.7 mb 0.00 in0.0 mm 0.00 in0.0 mm 0.00 in0.0 mm
08:19 PM 28.2°F-2.1°C -170.0°F-112.2°C - Calm Calm -- 30.20 in1022.7 mb 0.00 in0.0 mm 0.00 in0.0 mm 0.00 in0.0 mm
08:34 PM 27.7°F-2.4°C -170.0°F-112.2°C - Calm Calm -- 30.20 in1022.7 mb 0.00 in0.0 mm 0.00 in0.0 mm 0.00 in0.0 mm
08:49 PM 27.3°F-2.6°C -170.1°F-112.3°C - Calm Calm -- 30.20 in1022.7 mb 0.00 in0.0 mm 0.00 in0.0 mm 0.00 in0.0 mm
09:04 PM 27.5°F-2.5°C -170.1°F-112.3°C - Calm Calm -- 30.21 in1023.0 mb 0.00 in0.0 mm 0.00 in0.0 mm 0.00 in0.0 mm
09:21 PM 27.5°F-2.5°C -170.1°F-112.3°C - Calm Calm -- 30.21 in1023.0 mb 0.00 in0.0 mm 0.00 in0.0 mm 0.00 in0.0 mm
09:36 PM 27.0°F-2.8°C -170.1°F-112.3°C - Calm Calm -- 30.21 in1023.0 mb 0.00 in0.0 mm 0.00 in0.0 mm 0.00 in0.0 mm
09:50 PM 26.6°F-3.0°C -170.1°F-112.3°C - Calm Calm -- 30.21 in1023.0 mb 0.00 in0.0 mm 0.00 in0.0 mm 0.00 in0.0 mm
10:06 PM 26.6°F-3.0°C -170.1°F-112.3°C - Calm Calm -- 30.22 in1023.4 mb 0.00 in0.0 mm 0.00 in0.0 mm 0.00 in0.0 mm
10:21 PM 26.2°F-3.2°C -170.2°F-112.3°C - Calm Calm -- 30.22 in1023.4 mb 0.00 in0.0 mm 0.00 in0.0 mm 0.00 in0.0 mm
10:35 PM 26.6°F-3.0°C -170.1°F-112.3°C - Calm Calm -- 30.22 in1023.4 mb 0.00 in0.0 mm 0.00 in0.0 mm 0.00 in0.0 mm
10:50 PM 26.2°F-3.2°C -170.2°F-112.3°C - Calm Calm -- 30.22 in1023.4 mb 0.00 in0.0 mm 0.00 in0.0 mm 0.00 in0.0 mm
11:08 PM 26.2°F-3.2°C -170.2°F-112.3°C - Calm Calm -- 30.22 in1023.4 mb 0.00 in0.0 mm 0.00 in0.0 mm 0.00 in0.0 mm
11:22 PM 25.7°F-3.5°C -170.2°F-112.3°C - Calm Calm -- 30.21 in1023.0 mb 0.00 in0.0 mm 0.00 in0.0 mm 0.00 in0.0 mm
11:34 PM 25.2°F-3.8°C -170.3°F-112.4°C - Calm Calm -- 30.22 in1023.4 mb 0.00 in0.0 mm 0.00 in0.0 mm 0.00 in0.0 mm
11:51 PM 25.5°F-3.6°C -170.2°F-112.3°C - Calm Calm -- 30.21 in1023.0 mb 0.00 in0.0 mm 0.00 in0.0 mm 0.00 in0.0 mm